Yangon International Airport

Airport
ICAO code: 
VYYY
IATA Code: 
RGN
Summary
ICAO Region: 
APAC
Territory: 
Location: 
Mingaladon, Yangon Region
Serving: 
Yangon
Elevation: 
109 ft
Coordinates: 
Aerial View: 
16° 54' 34.97" N, 96° 8' 5.964" E
Metar
Observation
VYYY 201130Z 11007KT 6000 SCT018 FEW022CB SCT100 30/23 Q1007
Station
Yangon
Date/Time
2022-01-20 11:30:00
Wind direction
110°
Wind speed
07 kts
Lowest cloud amount
scattered clouds
Temperature
30°C
Dew point
23°C
Humidity
66%
QNH
1007 hPa
Weather condition
n/a

Yangon International Airport, located in Mingaladon, 15 km north of downtown Yangon, Myanmar.

Climatology

Tropical Monsoon climate (Köppen climate classification Am)

Runways

Designator Length Width Surface Rops
3/21 3414 61 ASP Yes/Yes
Airport map: 
Aerial View: 

Accidents and Serious Incidents at or in the vicinity of VYYY

SKYbrary Partners:

Safety knowledge contributed by: